createdAt,value
2019-03-20T00:00:38.097Z,13.77
2019-03-20T00:03:04.449Z,14.17
2019-03-20T00:05:30.939Z,12.80
2019-03-20T00:07:57.324Z,13.87
2019-03-20T00:10:24.079Z,13.53
2019-03-20T00:12:50.500Z,12.43
2019-03-20T00:15:17.089Z,12.37
2019-03-20T00:17:44.565Z,12.47
2019-03-20T00:20:12.269Z,12.47
2019-03-20T00:22:38.716Z,13.23
2019-03-20T00:25:07.100Z,14.13
2019-03-20T00:27:34.611Z,13.00
2019-03-20T00:30:01.040Z,13.23
2019-03-20T00:32:27.566Z,13.80
2019-03-20T00:35:00.951Z,13.13
2019-03-20T00:37:22.323Z,12.13
2019-03-20T00:39:48.786Z,12.70
2019-03-20T00:42:15.494Z,13.13
2019-03-20T00:44:41.846Z,13.57
2019-03-20T00:47:08.263Z,12.50
2019-03-20T00:49:34.598Z,12.80
2019-03-20T00:52:00.993Z,13.73
2019-03-20T00:54:27.317Z,14.40
2019-03-20T00:56:53.712Z,14.30
2019-03-20T00:59:20.115Z,13.57
2019-03-20T01:01:47.618Z,15.13
2019-03-20T01:04:14.010Z,14.77
2019-03-20T01:06:40.405Z,14.57
2019-03-20T01:09:06.828Z,14.93
2019-03-20T01:11:33.365Z,15.07
2019-03-20T01:13:59.782Z,16.20
2019-03-20T01:16:26.146Z,16.70
2019-03-20T01:18:52.491Z,16.23
2019-03-20T01:21:18.902Z,15.13
2019-03-20T01:23:45.307Z,15.63
2019-03-20T01:26:11.758Z,20.07
2019-03-20T01:28:38.227Z,15.87
2019-03-20T01:31:04.659Z,16.70
2019-03-20T01:33:31.062Z,17.07
2019-03-20T01:35:57.530Z,16.23
2019-03-20T01:38:23.993Z,15.93
2019-03-20T01:40:51.420Z,16.80
2019-03-20T01:43:17.794Z,15.57
2019-03-20T01:45:44.168Z,15.40
2019-03-20T01:48:10.555Z,15.63
2019-03-20T01:50:37.159Z,15.07
2019-03-20T01:53:03.682Z,14.43
2019-03-20T01:55:31.216Z,14.80
2019-03-20T01:57:57.608Z,14.50
2019-03-20T02:00:24.085Z,14.73
2019-03-20T02:02:50.519Z,14.20
2019-03-20T02:05:17.035Z,13.67
2019-03-20T02:07:43.454Z,13.87
2019-03-20T02:10:14.335Z,12.80
2019-03-20T02:12:41.959Z,13.53
2019-03-20T02:15:11.017Z,14.13
2019-03-20T02:17:37.477Z,14.00
2019-03-20T02:20:07.489Z,13.53
2019-03-20T02:22:33.948Z,13.70
2019-03-20T02:25:00.456Z,13.80
2019-03-20T02:27:26.959Z,12.70
2019-03-20T02:29:53.446Z,14.33
2019-03-20T02:32:19.829Z,13.20
2019-03-20T02:34:46.183Z,14.07
2019-03-20T02:37:12.571Z,13.43
2019-03-20T02:39:38.972Z,14.17
2019-03-20T02:42:05.460Z,14.27
2019-03-20T02:44:31.780Z,14.13
2019-03-20T02:46:58.220Z,13.83
2019-03-20T02:49:25.652Z,13.97
2019-03-20T02:51:52.066Z,13.43
2019-03-20T02:54:18.443Z,13.80
2019-03-20T02:56:44.846Z,13.97
2019-03-20T02:59:11.228Z,14.53
2019-03-20T03:01:37.652Z,14.00
2019-03-20T03:04:04.072Z,12.67
2019-03-20T03:06:30.466Z,13.33
2019-03-20T03:08:56.870Z,12.13
2019-03-20T03:11:23.262Z,13.63
2019-03-20T03:13:49.688Z,14.53
2019-03-20T03:16:16.064Z,12.50
2019-03-20T03:18:42.485Z,12.67
2019-03-20T03:21:08.971Z,13.33
2019-03-20T03:23:35.385Z,13.20
2019-03-20T03:26:01.765Z,13.97
2019-03-20T03:28:28.128Z,13.47
2019-03-20T03:30:54.511Z,12.67
2019-03-20T03:33:21.042Z,13.47
2019-03-20T03:35:47.524Z,12.43
2019-03-20T03:38:14.060Z,14.30
2019-03-20T03:40:42.105Z,14.83
2019-03-20T03:43:08.489Z,15.40
2019-03-20T03:45:34.927Z,14.77
2019-03-20T03:48:01.308Z,14.43
2019-03-20T03:50:27.619Z,14.30
2019-03-20T03:52:54.000Z,14.40
2019-03-20T03:55:20.394Z,14.43
2019-03-20T03:57:47.058Z,15.03
2019-03-20T04:00:18.800Z,14.90
2019-03-20T04:02:45.262Z,13.77
2019-03-20T04:05:12.119Z,14.97
2019-03-20T04:07:38.524Z,14.80
2019-03-20T04:10:10.685Z,16.00
2019-03-20T04:12:37.095Z,14.63
2019-03-20T04:15:06.403Z,21.07
2019-03-20T04:17:32.827Z,20.07
2019-03-20T04:19:59.199Z,19.77
2019-03-20T04:22:25.637Z,19.50
2019-03-20T04:24:51.976Z,19.30
2019-03-20T04:27:18.364Z,17.80
2019-03-20T04:29:44.767Z,18.43
2019-03-20T04:32:11.165Z,15.50
2019-03-20T04:34:37.578Z,16.90
2019-03-20T04:37:04.011Z,17.90
2019-03-20T04:39:30.417Z,18.67
2019-03-20T04:41:56.853Z,17.70
2019-03-20T04:44:24.345Z,16.03
2019-03-20T04:46:50.821Z,15.47
2019-03-20T04:49:17.197Z,16.67
2019-03-20T04:51:43.634Z,13.83
2019-03-20T04:54:09.992Z,16.10
2019-03-20T04:56:36.396Z,15.50
2019-03-20T04:59:02.777Z,14.80
2019-03-20T05:01:29.161Z,14.83
2019-03-20T05:03:55.539Z,14.47
2019-03-20T05:06:21.924Z,13.93
2019-03-20T05:08:48.559Z,13.73
2019-03-20T05:11:14.953Z,14.37
2019-03-20T05:13:41.359Z,13.57
2019-03-20T05:16:07.746Z,13.93
2019-03-20T05:18:34.119Z,13.03
2019-03-20T05:21:00.496Z,13.67
2019-03-20T05:23:26.920Z,13.60
2019-03-20T05:25:53.310Z,14.30
2019-03-20T05:28:19.770Z,13.83
2019-03-20T05:30:46.146Z,13.50
2019-03-20T05:33:12.540Z,13.80
2019-03-20T05:35:38.943Z,13.60
2019-03-20T05:38:05.350Z,13.20
2019-03-20T05:40:31.741Z,13.30
2019-03-20T05:42:58.102Z,13.03
2019-03-20T05:45:24.511Z,14.47
2019-03-20T05:47:50.907Z,14.37
2019-03-20T05:50:17.300Z,13.73
2019-03-20T05:52:43.684Z,14.30
2019-03-20T05:55:10.726Z,14.73
2019-03-20T05:57:37.115Z,12.53
2019-03-20T06:00:06.630Z,13.50
2019-03-20T06:02:33.041Z,14.20
2019-03-20T06:04:59.432Z,12.77
2019-03-20T06:07:25.814Z,13.13
2019-03-20T06:09:52.281Z,13.07
2019-03-20T06:12:18.719Z,12.53
2019-03-20T06:14:45.123Z,13.93
2019-03-20T06:17:11.483Z,13.90
2019-03-20T06:19:37.919Z,14.80
2019-03-20T06:22:04.257Z,12.93
2019-03-20T06:24:30.679Z,10.77
2019-03-20T06:26:57.105Z,9.53
2019-03-20T06:29:23.526Z,9.63
2019-03-20T06:31:49.889Z,9.00
2019-03-20T06:34:16.288Z,9.30
2019-03-20T06:36:42.744Z,10.23
2019-03-20T06:39:09.070Z,10.87
2019-03-20T06:41:35.475Z,8.70
2019-03-20T06:44:01.864Z,8.50
2019-03-20T06:46:28.302Z,16.90
2019-03-20T06:48:54.754Z,12.40
2019-03-20T06:51:21.164Z,13.30
2019-03-20T06:53:47.618Z,15.63
2019-03-20T06:56:15.306Z,18.50
2019-03-20T06:58:41.708Z,13.83
2019-03-20T07:01:12.016Z,12.67
2019-03-20T07:03:45.264Z,8.00
2019-03-20T07:06:32.994Z,8.67
2019-03-20T07:09:09.092Z,9.63
2019-03-20T07:11:38.475Z,7.83
2019-03-20T07:14:04.986Z,8.20
2019-03-20T07:16:31.338Z,8.80
2019-03-20T07:18:57.719Z,6.63
2019-03-20T07:21:24.098Z,8.83
2019-03-20T07:23:50.538Z,7.80
2019-03-20T07:26:17.034Z,7.17
2019-03-20T07:28:43.428Z,7.90
2019-03-20T07:31:15.336Z,7.80
2019-03-20T07:33:38.941Z,8.20
2019-03-20T07:36:05.400Z,7.00
2019-03-20T07:38:31.890Z,6.27
2019-03-20T07:40:58.336Z,6.43
2019-03-20T07:43:26.942Z,6.43
2019-03-20T07:45:52.931Z,8.60
2019-03-20T07:48:22.360Z,9.57
2019-03-20T07:50:47.593Z,7.87
2019-03-20T07:53:14.062Z,7.47
2019-03-20T07:55:40.414Z,7.30
2019-03-20T07:58:06.856Z,6.93
2019-03-20T08:00:33.282Z,8.27
2019-03-20T08:02:59.829Z,9.50
2019-03-20T08:05:29.487Z,8.87
2019-03-20T08:07:54.484Z,11.10
2019-03-20T08:10:20.890Z,9.60
2019-03-20T08:12:47.352Z,9.73
2019-03-20T08:15:16.005Z,9.27
2019-03-20T08:17:42.805Z,5.80
2019-03-20T08:20:12.760Z,11.20
2019-03-20T08:22:40.727Z,12.15
2019-03-20T08:25:07.672Z,8.23
2019-03-20T08:27:34.995Z,9.30
2019-03-20T08:30:02.611Z,9.90
2019-03-20T08:32:30.264Z,10.00
2019-03-20T08:34:56.678Z,10.05
2019-03-20T08:37:23.080Z,7.78
2019-03-20T08:39:49.523Z,8.75
2019-03-20T08:42:15.928Z,8.30
2019-03-20T08:44:42.390Z,6.92
2019-03-20T08:47:08.800Z,6.50
2019-03-20T08:49:35.212Z,7.40
2019-03-20T08:52:01.652Z,7.83
2019-03-20T08:54:28.109Z,6.47
2019-03-20T08:56:54.530Z,6.67
2019-03-20T08:59:20.966Z,4.40
2019-03-20T09:01:47.432Z,7.47
2019-03-20T09:04:13.850Z,5.47
2019-03-20T09:06:40.385Z,4.15
2019-03-20T09:09:09.316Z,17.15
2019-03-20T09:11:35.771Z,14.25
2019-03-20T09:14:02.300Z,4.65
2019-03-20T09:16:28.850Z,5.75
2019-03-20T09:18:55.397Z,4.05
2019-03-20T09:21:21.882Z,3.50
2019-03-20T09:23:48.327Z,4.25
2019-03-20T09:26:14.823Z,4.50
2019-03-20T09:28:41.259Z,4.22
2019-03-20T09:31:07.643Z,2.30
2019-03-20T09:33:34.114Z,2.15
2019-03-20T09:36:00.958Z,2.75
2019-03-20T09:38:27.395Z,3.15
2019-03-20T09:40:53.862Z,4.15
2019-03-20T09:43:20.271Z,4.10
2019-03-20T09:45:46.767Z,3.25
2019-03-20T09:48:13.232Z,2.27
2019-03-20T09:50:39.623Z,3.15
2019-03-20T09:53:06.075Z,2.42
2019-03-20T09:55:32.510Z,4.80
2019-03-20T09:57:58.988Z,2.67
2019-03-20T10:00:26.444Z,4.00
2019-03-20T10:02:53.303Z,5.30
2019-03-20T10:05:20.035Z,4.60
2019-03-20T10:07:46.590Z,2.42
2019-03-20T10:10:19.990Z,1.90
2019-03-20T10:12:46.428Z,3.50
2019-03-20T10:15:15.476Z,2.22
2019-03-20T10:17:41.889Z,3.47
2019-03-20T10:20:14.217Z,2.40
2019-03-20T10:22:40.610Z,1.82
2019-03-20T10:25:08.460Z,1.55
2019-03-20T10:27:34.934Z,1.90
2019-03-20T10:30:01.366Z,1.98
2019-03-20T10:32:27.860Z,1.47
2019-03-20T10:34:54.295Z,2.17
2019-03-20T10:37:20.734Z,2.50
2019-03-20T10:39:47.212Z,3.45
2019-03-20T10:42:13.677Z,4.05
2019-03-20T10:44:40.106Z,3.52
2019-03-20T10:47:06.610Z,3.67
2019-03-20T10:49:33.062Z,2.15
2019-03-20T10:51:59.529Z,3.00
2019-03-20T10:54:26.188Z,3.60
2019-03-20T10:56:53.531Z,3.95
2019-03-20T10:59:20.137Z,2.58
2019-03-20T11:01:46.566Z,4.87
2019-03-20T11:04:13.120Z,3.25
2019-03-20T11:06:39.556Z,4.28
2019-03-20T11:09:17.375Z,3.00
2019-03-20T11:11:34.368Z,2.65
2019-03-20T11:14:00.817Z,2.65
2019-03-20T11:16:27.223Z,4.45
2019-03-20T11:18:54.378Z,3.10
2019-03-20T11:21:20.803Z,3.62
2019-03-20T11:23:47.182Z,3.12
2019-03-20T11:26:14.626Z,2.85
2019-03-20T11:28:41.169Z,2.98
2019-03-20T11:31:07.561Z,2.27
2019-03-20T11:33:33.981Z,2.92
2019-03-20T11:36:00.466Z,2.77
2019-03-20T11:38:26.870Z,3.08
2019-03-20T11:40:53.362Z,4.85
2019-03-20T11:43:19.738Z,3.02
2019-03-20T11:45:46.142Z,4.50
2019-03-20T11:48:12.553Z,2.62
2019-03-20T11:50:40.413Z,2.92
2019-03-20T11:53:07.673Z,3.42
2019-03-20T11:55:34.717Z,4.45
2019-03-20T11:58:01.282Z,3.95
2019-03-20T12:00:27.759Z,4.03
2019-03-20T12:02:54.238Z,4.22
2019-03-20T12:05:21.678Z,4.17
2019-03-20T12:07:48.116Z,3.87
2019-03-20T12:10:26.416Z,4.37
2019-03-20T12:12:52.844Z,4.73
2019-03-20T12:15:19.390Z,3.90
2019-03-20T12:17:45.925Z,6.67
2019-03-20T12:20:22.076Z,4.37
2019-03-20T12:22:50.042Z,4.05
2019-03-20T12:25:31.031Z,3.65
2019-03-20T12:27:57.502Z,3.87
2019-03-20T12:30:26.777Z,4.77
2019-03-20T12:32:54.737Z,5.43
2019-03-20T12:35:22.571Z,4.33
2019-03-20T12:37:49.254Z,6.00
2019-03-20T12:40:23.596Z,4.43
2019-03-20T12:42:50.276Z,4.08
2019-03-20T12:45:21.936Z,4.72
2019-03-20T12:47:48.369Z,3.27
2019-03-20T12:50:14.722Z,7.17
2019-03-20T12:52:41.504Z,5.63
2019-03-20T12:55:10.572Z,4.93
2019-03-20T12:57:37.029Z,4.00
2019-03-20T13:00:07.322Z,5.23
2019-03-20T13:02:33.778Z,7.07
2019-03-20T13:05:00.199Z,4.20
2019-03-20T13:07:26.714Z,3.67
2019-03-20T13:09:56.168Z,5.17
2019-03-20T13:12:21.368Z,4.63
2019-03-20T13:14:47.777Z,3.23
2019-03-20T13:17:14.338Z,3.10
2019-03-20T13:19:40.729Z,4.10
2019-03-20T13:22:07.189Z,2.57
2019-03-20T13:24:33.624Z,2.83
2019-03-20T13:27:00.077Z,3.47
2019-03-20T13:29:26.586Z,10.00
2019-03-20T13:31:53.165Z,2.93
2019-03-20T13:34:19.614Z,2.10
2019-03-20T13:36:46.993Z,2.40
2019-03-20T13:39:13.479Z,1.90
2019-03-20T13:41:39.898Z,3.87
2019-03-20T13:44:06.350Z,2.70
2019-03-20T13:46:32.795Z,2.60
2019-03-20T13:48:59.301Z,2.90
2019-03-20T13:51:25.758Z,2.37
2019-03-20T13:53:52.221Z,2.70
2019-03-20T13:56:18.640Z,2.23
2019-03-20T13:58:46.220Z,2.43
2019-03-20T14:01:12.725Z,2.40
2019-03-20T14:03:39.196Z,2.20
2019-03-20T14:06:05.927Z,2.17
2019-03-20T14:08:32.358Z,3.20
2019-03-20T14:10:58.811Z,2.27
2019-03-20T14:13:25.352Z,2.80
2019-03-20T14:15:52.816Z,2.40
2019-03-20T14:18:19.245Z,2.33
2019-03-20T14:20:45.858Z,3.23
2019-03-20T14:23:13.480Z,1.83
2019-03-20T14:25:39.958Z,2.33
2019-03-20T14:28:06.655Z,1.90
2019-03-20T14:30:33.271Z,1.73
2019-03-20T14:32:59.796Z,2.33
2019-03-20T14:35:26.394Z,2.63
2019-03-20T14:37:53.078Z,2.70
2019-03-20T14:40:37.414Z,2.27
2019-03-20T14:42:58.541Z,1.83
2019-03-20T14:45:25.378Z,2.50
2019-03-20T14:47:52.029Z,2.13
2019-03-20T14:50:29.067Z,2.97
2019-03-20T14:52:55.530Z,2.57
2019-03-20T14:55:22.946Z,2.43
2019-03-20T14:57:49.720Z,2.03
2019-03-20T15:00:29.330Z,2.40
2019-03-20T15:02:55.852Z,4.40
2019-03-20T15:05:22.389Z,2.80
2019-03-20T15:07:49.106Z,2.20
2019-03-20T15:10:18.416Z,1.80
2019-03-20T15:12:45.782Z,2.20
2019-03-20T15:15:33.808Z,2.87
2019-03-20T15:18:00.403Z,3.40
2019-03-20T15:20:26.899Z,3.57
2019-03-20T15:22:53.465Z,2.43
2019-03-20T15:25:20.042Z,4.27
2019-03-20T15:27:46.560Z,2.50
2019-03-20T15:30:16.061Z,2.57
2019-03-20T15:32:42.546Z,2.97
2019-03-20T15:35:09.174Z,3.67
2019-03-20T15:37:35.607Z,2.83
2019-03-20T15:40:03.848Z,3.10
2019-03-20T15:42:31.372Z,3.30
2019-03-20T15:44:57.704Z,3.30
2019-03-20T15:47:24.181Z,2.90
2019-03-20T15:49:50.587Z,3.30
2019-03-20T15:52:17.002Z,3.23
2019-03-20T15:54:43.452Z,3.20
2019-03-20T15:57:09.943Z,3.67
2019-03-20T15:59:36.477Z,3.40
2019-03-20T16:02:03.011Z,2.80
2019-03-20T16:04:29.408Z,2.93
2019-03-20T16:06:55.857Z,2.70
2019-03-20T16:09:22.356Z,3.33
2019-03-20T16:11:48.866Z,3.53
2019-03-20T16:14:15.343Z,3.23
2019-03-20T16:16:41.849Z,3.27
2019-03-20T16:19:08.278Z,3.27
2019-03-20T16:21:34.690Z,3.97
2019-03-20T16:24:01.129Z,3.40
2019-03-20T16:26:27.676Z,3.87
2019-03-20T16:28:54.159Z,3.97
2019-03-20T16:31:20.573Z,4.23
2019-03-20T16:33:47.042Z,3.83
2019-03-20T16:36:13.459Z,3.90
2019-03-20T16:38:39.870Z,4.47
2019-03-20T16:41:16.203Z,3.97
2019-03-20T16:43:34.506Z,4.33
2019-03-20T16:46:00.977Z,4.73
2019-03-20T16:48:27.363Z,5.37
2019-03-20T16:50:53.788Z,4.47
2019-03-20T16:53:20.233Z,4.90
2019-03-20T16:55:46.746Z,3.43
2019-03-20T16:58:13.272Z,3.87
2019-03-20T17:00:39.793Z,3.33
2019-03-20T17:03:06.252Z,3.07
2019-03-20T17:05:32.753Z,4.00
2019-03-20T17:07:59.194Z,4.13
2019-03-20T17:10:28.732Z,4.70
2019-03-20T17:12:55.281Z,6.43
2019-03-20T17:15:23.849Z,4.70
2019-03-20T17:17:50.332Z,2.93
2019-03-20T17:20:17.420Z,4.07
2019-03-20T17:22:43.780Z,3.00
2019-03-20T17:25:11.110Z,3.50
2019-03-20T17:27:37.639Z,3.57
2019-03-20T17:30:16.999Z,3.23
2019-03-20T17:32:43.466Z,3.40
2019-03-20T17:35:11.752Z,3.20
2019-03-20T17:37:38.169Z,4.90
2019-03-20T17:40:13.002Z,4.70
2019-03-20T17:42:39.787Z,3.60
2019-03-20T17:45:09.705Z,3.17
2019-03-20T17:47:36.197Z,3.07
2019-03-20T17:50:06.464Z,3.67
2019-03-20T17:52:32.932Z,3.17
2019-03-20T17:54:59.437Z,3.57
2019-03-20T17:57:26.902Z,3.40
2019-03-20T17:59:53.359Z,3.50
2019-03-20T18:02:24.010Z,4.07
2019-03-20T18:04:48.096Z,3.17
2019-03-20T18:07:14.652Z,3.80
2019-03-20T18:09:41.071Z,4.00
2019-03-20T18:12:07.527Z,3.13
2019-03-20T18:14:34.044Z,2.90
2019-03-20T18:17:00.489Z,3.50
2019-03-20T18:19:26.976Z,3.50
2019-03-20T18:21:53.474Z,3.33
2019-03-20T18:24:20.007Z,4.77
2019-03-20T18:26:47.556Z,4.27
2019-03-20T18:29:14.083Z,3.40
2019-03-20T18:31:46.050Z,4.03
2019-03-20T18:34:08.809Z,4.00
2019-03-20T18:36:35.308Z,3.97
2019-03-20T18:39:01.758Z,5.00
2019-03-20T18:41:29.773Z,3.97
2019-03-20T18:43:56.163Z,4.20
2019-03-20T18:46:22.535Z,3.73
2019-03-20T18:48:48.957Z,4.70
2019-03-20T18:51:15.404Z,4.43
2019-03-20T18:53:41.926Z,4.50
2019-03-20T18:56:08.412Z,4.87
2019-03-20T18:58:34.855Z,4.03
2019-03-20T19:01:01.287Z,4.63
2019-03-20T19:03:37.300Z,3.97
2019-03-20T19:06:14.559Z,3.73
2019-03-20T19:08:41.241Z,4.27
2019-03-20T19:11:07.810Z,3.23
2019-03-20T19:13:34.163Z,4.07
2019-03-20T19:16:00.583Z,4.03
2019-03-20T19:18:27.227Z,4.60
2019-03-20T19:20:53.775Z,4.47
2019-03-20T19:23:20.167Z,5.80
2019-03-20T19:25:46.604Z,6.83
2019-03-20T19:28:13.051Z,6.77
2019-03-20T19:30:39.731Z,8.33
2019-03-20T19:33:06.324Z,6.87
2019-03-20T19:35:32.796Z,8.53
2019-03-20T19:37:59.262Z,5.27
2019-03-20T19:40:25.692Z,4.60
2019-03-20T19:42:52.154Z,5.50
2019-03-20T19:45:18.605Z,5.13
2019-03-20T19:47:46.136Z,5.27
2019-03-20T19:50:13.948Z,6.13
2019-03-20T19:52:40.703Z,5.60
2019-03-20T19:55:11.802Z,5.03
2019-03-20T19:57:38.244Z,5.33
2019-03-20T20:00:21.671Z,5.67
2019-03-20T20:02:48.136Z,5.80
2019-03-20T20:05:16.018Z,4.83
2019-03-20T20:07:42.862Z,4.90
2019-03-20T20:10:12.460Z,4.53
2019-03-20T20:12:38.942Z,6.27
2019-03-20T20:15:12.470Z,5.80
2019-03-20T20:17:39.049Z,6.37
2019-03-20T20:20:09.231Z,5.53
2019-03-20T20:22:35.654Z,6.10
2019-03-20T20:25:03.686Z,5.10
2019-03-20T20:27:30.195Z,5.13
2019-03-20T20:29:56.998Z,5.07
2019-03-20T20:32:23.483Z,5.03
2019-03-20T20:34:50.092Z,5.33
2019-03-20T20:37:16.615Z,6.37
2019-03-20T20:39:43.434Z,5.27
2019-03-20T20:42:09.968Z,5.93
2019-03-20T20:44:36.360Z,5.30
2019-03-20T20:47:02.776Z,6.17
2019-03-20T20:49:29.182Z,6.00
2019-03-20T20:51:55.848Z,6.93
2019-03-20T20:54:22.261Z,7.40
2019-03-20T20:56:49.490Z,6.33
2019-03-20T20:59:16.049Z,6.77
2019-03-20T21:01:42.558Z,6.20
2019-03-20T21:04:09.103Z,7.03
2019-03-20T21:06:35.823Z,8.53
2019-03-20T21:09:05.209Z,7.87
2019-03-20T21:11:32.122Z,7.43
2019-03-20T21:13:58.732Z,6.30
2019-03-20T21:16:25.242Z,7.03
2019-03-20T21:19:21.693Z,7.80
2019-03-20T21:21:57.658Z,7.30
2019-03-20T21:24:25.060Z,7.17
2019-03-20T21:27:01.115Z,7.47
2019-03-20T21:30:06.601Z,7.87
2019-03-20T21:32:39.897Z,10.73
2019-03-20T21:35:32.679Z,8.03
2019-03-20T21:38:09.574Z,7.70
2019-03-20T21:41:15.438Z,7.23
2019-03-20T21:44:08.652Z,8.37
2019-03-20T21:47:01.964Z,7.00
2019-03-20T21:49:28.554Z,7.57
2019-03-20T21:51:54.994Z,7.77
2019-03-20T21:54:42.100Z,8.50
2019-03-20T21:57:15.496Z,8.90
2019-03-20T22:00:13.003Z,8.33
2019-03-20T22:02:39.525Z,7.83
2019-03-20T22:05:27.820Z,8.03
2019-03-20T22:07:54.257Z,8.70
2019-03-20T22:10:27.264Z,8.33
2019-03-20T22:13:18.161Z,8.83
2019-03-20T22:15:47.883Z,8.47
2019-03-20T22:18:53.407Z,8.33
2019-03-20T22:21:39.058Z,8.03
2019-03-20T22:24:26.309Z,8.00
2019-03-20T22:27:30.614Z,9.10
2019-03-20T22:29:57.178Z,8.83
2019-03-20T22:32:30.270Z,9.43
2019-03-20T22:35:12.495Z,8.43
2019-03-20T22:37:38.973Z,8.97
2019-03-20T22:40:15.112Z,8.20
2019-03-20T22:43:03.619Z,13.97
2019-03-20T22:46:05.930Z,8.97
2019-03-20T22:48:44.550Z,8.50
2019-03-20T22:51:17.602Z,8.87
2019-03-20T22:54:04.327Z,9.33
2019-03-20T22:57:07.476Z,9.67
2019-03-20T22:59:34.062Z,10.67
2019-03-20T23:02:19.203Z,9.83
2019-03-20T23:04:49.337Z,8.47
2019-03-20T23:07:15.789Z,12.90
2019-03-20T23:09:42.202Z,11.23
2019-03-20T23:12:10.945Z,11.43
2019-03-20T23:14:37.441Z,12.70
2019-03-20T23:17:03.878Z,9.73
2019-03-20T23:19:30.312Z,9.63
2019-03-20T23:21:56.829Z,10.97
2019-03-20T23:24:23.259Z,10.30
2019-03-20T23:26:49.766Z,9.93
2019-03-20T23:29:16.193Z,10.03
2019-03-20T23:31:42.702Z,15.27
2019-03-20T23:34:09.136Z,17.03
2019-03-20T23:36:35.749Z,19.10
2019-03-20T23:39:06.386Z,16.87
2019-03-20T23:41:33.114Z,11.83
2019-03-20T23:43:59.493Z,17.03
2019-03-20T23:46:25.909Z,15.30
2019-03-20T23:49:01.822Z,12.27
2019-03-20T23:51:33.678Z,15.30
2019-03-20T23:54:00.114Z,14.93
2019-03-20T23:56:32.920Z,17.30
2019-03-20T23:58:59.324Z,15.83
